createdAt,value
2018-07-27T00:00:13.649Z,100839.79
2018-07-27T00:02:44.684Z,100838.66
2018-07-27T00:05:14.940Z,100838.02
2018-07-27T00:07:45.181Z,100835.80
2018-07-27T00:10:18.406Z,100832.41
2018-07-27T00:12:50.742Z,100833.28
2018-07-27T00:15:29.252Z,100832.73
2018-07-27T00:18:00.853Z,100827.34
2018-07-27T00:20:32.202Z,100833.80
2018-07-27T00:23:03.029Z,100834.60
2018-07-27T00:25:33.774Z,100835.14
2018-07-27T00:28:04.672Z,100831.05
2018-07-27T00:30:35.108Z,100828.19
2018-07-27T00:33:05.299Z,100828.37
2018-07-27T00:35:35.521Z,100828.39
2018-07-27T00:38:05.774Z,100827.70
2018-07-27T00:40:36.226Z,100830.44
2018-07-27T00:43:06.829Z,100829.23
2018-07-27T00:45:37.127Z,100826.72
2018-07-27T00:48:07.348Z,100827.90
2018-07-27T00:50:37.778Z,100822.50
2018-07-27T00:53:08.000Z,100825.17
2018-07-27T00:55:39.498Z,100819.39
2018-07-27T00:58:10.018Z,100817.05
2018-07-27T01:00:40.621Z,100817.73
2018-07-27T01:03:11.634Z,100811.13
2018-07-27T01:05:43.806Z,100819.25
2018-07-27T01:08:14.046Z,100813.98
2018-07-27T01:10:44.269Z,100817.87
2018-07-27T01:13:14.713Z,100806.90
2018-07-27T01:15:44.956Z,100811.28
2018-07-27T01:18:15.201Z,100803.84
2018-07-27T01:20:45.414Z,100809.59
2018-07-27T01:23:15.606Z,100807.91
2018-07-27T01:25:46.059Z,100804.51
2018-07-27T01:28:16.527Z,100807.38
2018-07-27T01:30:46.953Z,100803.63
2018-07-27T01:33:17.121Z,100802.95
2018-07-27T01:35:47.291Z,100805.84
2018-07-27T01:38:17.431Z,100803.13
2018-07-27T01:40:47.733Z,100806.02
2018-07-27T01:43:17.490Z,100800.66
2018-07-27T01:45:47.822Z,100805.03
2018-07-27T01:48:18.112Z,100801.82
2018-07-27T01:50:48.762Z,100804.19
2018-07-27T01:53:19.809Z,100799.59
2018-07-27T01:55:50.737Z,100805.95
2018-07-27T01:58:21.743Z,100802.94
2018-07-27T02:00:52.555Z,100804.98
2018-07-27T02:03:23.241Z,100797.91
2018-07-27T02:05:53.665Z,100796.84
2018-07-27T02:08:24.524Z,100790.95
2018-07-27T02:10:54.721Z,100797.01
2018-07-27T02:13:25.059Z,100793.43
2018-07-27T02:15:55.253Z,100793.51
2018-07-27T02:18:25.038Z,100796.20
2018-07-27T02:20:55.321Z,100791.91
2018-07-27T02:23:25.046Z,100790.95
2018-07-27T02:25:55.484Z,100784.28
2018-07-27T02:28:25.748Z,100785.78
2018-07-27T02:30:56.132Z,100784.67
2018-07-27T02:33:26.502Z,100785.33
2018-07-27T02:35:57.241Z,100780.03
2018-07-27T02:38:27.588Z,100780.17
2018-07-27T02:40:58.169Z,100784.52
2018-07-27T02:43:28.046Z,100783.38
2018-07-27T02:45:58.350Z,100785.14
2018-07-27T02:48:28.065Z,100780.97
2018-07-27T02:50:59.028Z,100781.48
2018-07-27T02:53:30.020Z,100785.99
2018-07-27T02:56:00.566Z,100783.61
2018-07-27T02:58:31.214Z,100786.88
2018-07-27T03:01:02.243Z,100786.48
2018-07-27T03:03:33.581Z,100790.31
2018-07-27T03:06:04.088Z,100787.31
2018-07-27T03:08:34.272Z,100794.05
2018-07-27T03:11:06.991Z,100795.06
2018-07-27T03:13:37.272Z,100794.53
2018-07-27T03:16:07.682Z,100791.67
2018-07-27T03:18:37.920Z,100790.09
2018-07-27T03:21:08.274Z,100789.75
2018-07-27T03:23:38.483Z,100787.59
2018-07-27T03:26:08.665Z,100783.78
2018-07-27T03:28:38.967Z,100785.97
2018-07-27T03:31:09.398Z,100789.65
2018-07-27T03:33:39.593Z,100777.20
2018-07-27T03:36:09.693Z,100789.98
2018-07-27T03:38:41.519Z,100782.81
2018-07-27T03:41:13.430Z,100780.02
2018-07-27T03:43:44.860Z,100784.65
2018-07-27T03:46:16.257Z,100780.17
2018-07-27T03:48:46.429Z,100779.30
2018-07-27T03:51:17.529Z,100776.88
2018-07-27T03:53:47.689Z,100781.20
2018-07-27T03:56:17.813Z,100783.89
2018-07-27T03:58:48.359Z,100783.05
2018-07-27T04:01:18.513Z,100781.91
2018-07-27T04:03:48.826Z,100785.19
2018-07-27T04:06:18.989Z,100788.03
2018-07-27T04:08:49.109Z,100777.54
2018-07-27T04:11:19.231Z,100781.27
2018-07-27T04:13:49.395Z,100782.28
2018-07-27T04:16:19.488Z,100780.07
2018-07-27T04:18:49.704Z,100784.97
2018-07-27T04:21:19.862Z,100792.17
2018-07-27T04:23:50.169Z,100787.80
2018-07-27T04:26:20.687Z,100793.79
2018-07-27T04:28:50.892Z,100797.60
2018-07-27T04:31:21.166Z,100794.06
2018-07-27T04:33:51.413Z,100799.67
2018-07-27T04:36:21.504Z,100801.36
2018-07-27T04:38:51.758Z,100798.28
2018-07-27T04:41:21.984Z,100800.74
2018-07-27T04:43:52.350Z,100806.07
2018-07-27T04:46:22.626Z,100803.70
2018-07-27T04:48:52.831Z,100797.16
2018-07-27T04:51:22.980Z,100789.31
2018-07-27T04:53:53.176Z,100793.55
2018-07-27T04:56:23.466Z,100791.05
2018-07-27T04:58:53.791Z,100799.89
2018-07-27T05:01:23.950Z,100796.63
2018-07-27T05:03:54.356Z,100799.00
2018-07-27T05:06:24.561Z,100794.67
2018-07-27T05:08:59.931Z,100804.91
2018-07-27T05:11:30.250Z,100802.44
2018-07-27T05:14:00.501Z,100797.23
2018-07-27T05:16:30.613Z,100800.51
2018-07-27T05:19:00.799Z,100800.73
2018-07-27T05:21:30.953Z,100807.84
2018-07-27T05:24:01.296Z,100805.20
2018-07-27T05:26:31.579Z,100802.58
2018-07-27T05:29:01.704Z,100810.21
2018-07-27T05:31:31.940Z,100813.53
2018-07-27T05:34:02.250Z,100808.34
2018-07-27T05:36:33.038Z,100798.58
2018-07-27T05:39:03.498Z,100804.03
2018-07-27T05:41:33.623Z,100805.80
2018-07-27T05:44:03.882Z,100801.29
2018-07-27T05:46:34.054Z,100804.95
2018-07-27T05:49:05.762Z,100799.45
2018-07-27T05:51:36.013Z,100805.95
2018-07-27T05:54:06.393Z,100800.33
2018-07-27T05:56:36.726Z,100790.83
2018-07-27T05:59:07.069Z,100794.72
2018-07-27T06:01:39.062Z,100793.34
2018-07-27T06:04:09.318Z,100797.98
2018-07-27T06:06:39.512Z,100800.94
2018-07-27T06:09:11.622Z,100796.01
2018-07-27T06:11:41.742Z,100796.96
2018-07-27T06:14:12.012Z,100800.44
2018-07-27T06:16:42.184Z,100790.05
2018-07-27T06:19:12.368Z,100792.70
2018-07-27T06:21:42.489Z,100785.84
2018-07-27T06:24:12.768Z,100785.97
2018-07-27T06:26:42.864Z,100787.19
2018-07-27T06:29:13.093Z,100789.23
2018-07-27T06:31:43.559Z,100790.69
2018-07-27T06:34:13.810Z,100794.53
2018-07-27T06:36:44.013Z,100796.31
2018-07-27T06:39:14.200Z,100796.27
2018-07-27T06:41:44.377Z,100792.61
2018-07-27T06:44:14.720Z,100793.13
2018-07-27T06:46:44.830Z,100793.30
2018-07-27T06:49:15.077Z,100788.16
2018-07-27T06:51:45.216Z,100789.62
2018-07-27T06:54:15.567Z,100789.91
2018-07-27T06:56:45.785Z,100790.52
2018-07-27T06:59:15.963Z,100791.76
2018-07-27T07:01:46.893Z,100789.87
2018-07-27T07:04:17.102Z,100792.80
2018-07-27T07:06:47.183Z,100787.98
2018-07-27T07:09:17.582Z,100793.34
2018-07-27T07:11:47.815Z,100788.12
2018-07-27T07:14:17.964Z,100787.54
2018-07-27T07:16:48.455Z,100787.62
2018-07-27T07:19:18.680Z,100782.91
2018-07-27T07:21:48.864Z,100784.91
2018-07-27T07:24:19.016Z,100784.62
2018-07-27T07:26:49.309Z,100779.45
2018-07-27T07:29:19.502Z,100777.61
2018-07-27T07:31:49.819Z,100778.58
2018-07-27T07:34:19.975Z,100770.31
2018-07-27T07:36:49.854Z,100774.23
2018-07-27T07:39:20.001Z,100775.42
2018-07-27T07:41:50.247Z,100778.38
2018-07-27T07:44:20.376Z,100774.27
2018-07-27T07:46:50.674Z,100768.38
2018-07-27T07:49:20.842Z,100772.89
2018-07-27T07:51:50.913Z,100766.14
2018-07-27T07:54:21.102Z,100766.52
2018-07-27T07:56:51.239Z,100763.73
2018-07-27T07:59:21.429Z,100760.73
2018-07-27T08:01:51.565Z,100757.12
2018-07-27T08:04:21.759Z,100756.89
2018-07-27T08:06:51.950Z,100756.67
2018-07-27T08:09:22.168Z,100759.09
2018-07-27T08:11:52.445Z,100756.48
2018-07-27T08:14:22.642Z,100756.44
2018-07-27T08:16:52.736Z,100754.25
2018-07-27T08:19:22.904Z,100751.89
2018-07-27T08:21:53.120Z,100746.47
2018-07-27T08:24:23.477Z,100746.98
2018-07-27T08:26:58.281Z,100744.27
2018-07-27T08:29:30.756Z,100738.20
2018-07-27T08:32:01.432Z,100738.58
2018-07-27T08:34:31.817Z,100731.20
2018-07-27T08:37:02.090Z,100732.02
2018-07-27T08:39:34.133Z,100737.57
2018-07-27T08:42:04.345Z,100730.78
2018-07-27T08:44:35.922Z,100734.25
2018-07-27T08:47:06.138Z,100726.66
2018-07-27T08:49:36.437Z,100721.25
2018-07-27T08:52:06.732Z,100725.55
2018-07-27T08:54:36.969Z,100716.61
2018-07-27T08:57:07.273Z,100710.19
2018-07-27T08:59:37.715Z,100707.08
2018-07-27T09:02:07.990Z,100696.08
2018-07-27T09:04:38.221Z,100700.11
2018-07-27T09:07:08.637Z,100715.80
2018-07-27T09:09:39.025Z,100703.29
2018-07-27T09:12:09.355Z,100700.88
2018-07-27T09:14:39.594Z,100702.06
2018-07-27T09:17:09.877Z,100699.39
2018-07-27T09:19:40.348Z,100707.47
2018-07-27T09:22:10.560Z,100698.58
2018-07-27T09:24:40.915Z,100697.72
2018-07-27T09:27:10.908Z,100697.47
2018-07-27T09:29:41.042Z,100695.84
2018-07-27T09:32:11.168Z,100696.61
2018-07-27T09:34:41.361Z,100687.11
2018-07-27T09:37:11.563Z,100685.80
2018-07-27T09:39:41.889Z,100689.87
2018-07-27T09:42:12.104Z,100698.77
2018-07-27T09:44:42.289Z,100688.89
2018-07-27T09:47:12.558Z,100690.02
2018-07-27T09:49:42.716Z,100683.98
2018-07-27T09:52:12.812Z,100686.53
2018-07-27T09:54:43.015Z,100677.61
2018-07-27T09:57:13.093Z,100680.70
2018-07-27T09:59:50.085Z,100682.47
2018-07-27T10:02:20.452Z,100684.90
2018-07-27T10:04:50.619Z,100678.48
2018-07-27T10:07:20.693Z,100668.64
2018-07-27T10:09:51.029Z,100666.61
2018-07-27T10:12:21.221Z,100668.50
2018-07-27T10:14:51.386Z,100672.11
2018-07-27T10:17:21.804Z,100665.81
2018-07-27T10:19:52.188Z,100665.98
2018-07-27T10:22:22.340Z,100666.99
2018-07-27T10:24:52.491Z,100669.88
2018-07-27T10:27:22.706Z,100670.81
2018-07-27T10:29:52.927Z,100657.47
2018-07-27T10:32:23.093Z,100662.37
2018-07-27T10:34:53.276Z,100662.17
2018-07-27T10:37:25.332Z,100652.42
2018-07-27T10:39:55.479Z,100652.45
2018-07-27T10:42:25.556Z,100639.15
2018-07-27T10:45:00.472Z,100644.37
2018-07-27T10:47:32.666Z,100638.90
2018-07-27T10:50:02.828Z,100645.06
2018-07-27T10:52:33.318Z,100635.72
2018-07-27T10:55:03.550Z,100641.45
2018-07-27T10:57:33.685Z,100631.72
2018-07-27T11:00:04.012Z,100635.20
2018-07-27T11:02:34.182Z,100632.86
2018-07-27T11:05:04.404Z,100639.30
2018-07-27T11:07:34.477Z,100628.80
2018-07-27T11:10:04.809Z,100628.48
2018-07-27T11:12:35.313Z,100625.95
2018-07-27T11:15:06.233Z,100616.20
2018-07-27T11:17:36.424Z,100618.30
2018-07-27T11:20:07.946Z,100616.97
2018-07-27T11:22:37.858Z,100620.94
2018-07-27T11:25:08.265Z,100617.30
2018-07-27T11:27:38.385Z,100610.45
2018-07-27T11:30:08.637Z,100604.36
2018-07-27T11:32:38.798Z,100607.31
2018-07-27T11:35:08.999Z,100600.57
2018-07-27T11:37:39.206Z,100594.08
2018-07-27T11:40:09.436Z,100596.97
2018-07-27T11:42:39.180Z,100592.78
2018-07-27T11:45:09.338Z,100580.13
2018-07-27T11:47:39.497Z,100583.62
2018-07-27T11:50:09.711Z,100586.14
2018-07-27T11:52:41.001Z,100577.22
2018-07-27T11:55:11.340Z,100572.70
2018-07-27T11:57:41.431Z,100572.63
2018-07-27T12:00:11.799Z,100557.91
2018-07-27T12:02:42.610Z,100558.59
2018-07-27T12:05:12.926Z,100557.89
2018-07-27T12:07:43.054Z,100553.95
2018-07-27T12:10:13.312Z,100551.86
2018-07-27T12:12:43.433Z,100544.48
2018-07-27T12:15:13.917Z,100545.11
2018-07-27T12:17:43.786Z,100538.44
2018-07-27T12:20:16.273Z,100535.08
2018-07-27T12:22:46.571Z,100542.81
2018-07-27T12:25:16.768Z,100538.20
2018-07-27T12:27:46.839Z,100523.50
2018-07-27T12:30:17.021Z,100529.59
2018-07-27T12:32:47.199Z,100517.98
2018-07-27T12:35:17.540Z,100514.52
2018-07-27T12:37:47.725Z,100525.88
2018-07-27T12:40:17.942Z,100517.00
2018-07-27T12:42:48.115Z,100520.39
2018-07-27T12:45:18.257Z,100515.31
2018-07-27T12:47:48.424Z,100513.83
2018-07-27T12:50:18.593Z,100502.53
2018-07-27T12:52:48.706Z,100500.76
2018-07-27T12:55:18.904Z,100503.36
2018-07-27T12:57:49.242Z,100501.27
2018-07-27T13:00:19.429Z,100502.26
2018-07-27T13:02:49.597Z,100494.68
2018-07-27T13:05:19.851Z,100478.55
2018-07-27T13:07:49.995Z,100472.51
2018-07-27T13:10:20.135Z,100468.34
2018-07-27T13:12:50.297Z,100480.06
2018-07-27T13:15:20.602Z,100474.86
2018-07-27T13:17:50.343Z,100461.58
2018-07-27T13:20:20.566Z,100462.90
2018-07-27T13:22:50.780Z,100464.92
2018-07-27T13:25:21.014Z,100463.34
2018-07-27T13:27:51.116Z,100463.06
2018-07-27T13:30:21.310Z,100454.56
2018-07-27T13:32:51.412Z,100453.91
2018-07-27T13:35:21.699Z,100449.67
2018-07-27T13:37:51.823Z,100446.47
2018-07-27T13:40:21.972Z,100447.40
2018-07-27T13:42:52.099Z,100435.26
2018-07-27T13:45:22.252Z,100436.87
2018-07-27T13:47:52.386Z,100435.73
2018-07-27T13:50:22.544Z,100432.20
2018-07-27T13:52:52.746Z,100429.20
2018-07-27T13:55:22.873Z,100427.27
2018-07-27T13:57:52.987Z,100420.20
2018-07-27T14:00:23.304Z,100413.03
2018-07-27T14:02:53.493Z,100413.94
2018-07-27T14:05:23.662Z,100414.64
2018-07-27T14:07:53.855Z,100411.73
2018-07-27T14:10:24.064Z,100410.09
2018-07-27T14:12:54.284Z,100407.02
2018-07-27T14:15:24.483Z,100402.63
2018-07-27T14:17:54.665Z,100396.80
2018-07-27T14:20:24.861Z,100399.09
2018-07-27T14:22:54.953Z,100394.81
2018-07-27T14:25:25.178Z,100397.53
2018-07-27T14:28:02.264Z,100392.20
2018-07-27T14:30:32.437Z,100386.59
2018-07-27T14:33:02.667Z,100386.59
2018-07-27T14:35:32.882Z,100381.91
2018-07-27T14:38:03.314Z,100382.85
2018-07-27T14:40:33.714Z,100374.89
2018-07-27T14:43:03.922Z,100374.30
2018-07-27T14:45:34.071Z,100367.33
2018-07-27T14:48:04.175Z,100365.13
2018-07-27T14:50:34.471Z,100359.06
2018-07-27T14:53:04.643Z,100358.25
2018-07-27T14:55:34.795Z,100355.51
2018-07-27T14:58:05.575Z,100348.34
2018-07-27T15:00:35.709Z,100362.30
2018-07-27T15:03:05.865Z,100353.91
2018-07-27T15:05:36.072Z,100345.01
2018-07-27T15:08:06.306Z,100345.02
2018-07-27T15:10:36.437Z,100344.64
2018-07-27T15:13:06.676Z,100338.38
2018-07-27T15:15:36.884Z,100341.05
2018-07-27T15:18:07.433Z,100331.32
2018-07-27T15:20:37.583Z,100330.98
2018-07-27T15:23:07.923Z,100328.64
2018-07-27T15:25:38.518Z,100329.32
2018-07-27T15:28:08.639Z,100335.10
2018-07-27T15:30:38.839Z,100332.30
2018-07-27T15:33:08.965Z,100336.97
2018-07-27T15:35:39.218Z,100330.12
2018-07-27T15:38:09.385Z,100317.41
2018-07-27T15:40:39.550Z,100318.28
2018-07-27T15:43:09.708Z,100312.96
2018-07-27T15:45:39.850Z,100310.03
2018-07-27T15:48:10.086Z,100302.29
2018-07-27T15:50:40.224Z,100309.97
2018-07-27T15:53:10.389Z,100312.68
2018-07-27T15:55:40.697Z,100301.63
2018-07-27T15:58:10.452Z,100304.87
2018-07-27T16:00:40.728Z,100298.14
2018-07-27T16:03:11.020Z,100296.94
2018-07-27T16:05:41.145Z,100292.70
2018-07-27T16:08:11.245Z,100292.00
2018-07-27T16:10:41.414Z,100284.59
2018-07-27T16:13:11.648Z,100276.25
2018-07-27T16:15:41.805Z,100278.50
2018-07-27T16:18:11.965Z,100273.92
2018-07-27T16:20:42.155Z,100273.29
2018-07-27T16:23:12.378Z,100273.77
2018-07-27T16:25:42.569Z,100264.38
2018-07-27T16:28:12.663Z,100272.44
2018-07-27T16:30:43.012Z,100272.22
2018-07-27T16:33:13.346Z,100256.33
2018-07-27T16:35:43.476Z,100257.22
2018-07-27T16:38:13.611Z,100260.28
2018-07-27T16:40:43.824Z,100259.52
2018-07-27T16:43:13.963Z,100255.71
2018-07-27T16:45:44.182Z,100253.77
2018-07-27T16:48:14.273Z,100256.98
2018-07-27T16:50:44.425Z,100259.12
2018-07-27T16:53:14.544Z,100256.77
2018-07-27T16:55:44.244Z,100258.69
2018-07-27T16:58:14.477Z,100256.72
2018-07-27T17:00:44.589Z,100258.47
2018-07-27T17:03:14.735Z,100258.09
2018-07-27T17:05:44.922Z,100256.20
2018-07-27T17:08:15.132Z,100252.41
2018-07-27T17:10:45.414Z,100251.04
2018-07-27T17:13:15.625Z,100245.74
2018-07-27T17:15:45.851Z,100248.24
2018-07-27T17:18:16.031Z,100239.94
2018-07-27T17:20:46.251Z,100244.48
2018-07-27T17:23:16.384Z,100244.09
2018-07-27T17:25:46.588Z,100247.78
2018-07-27T17:28:16.752Z,100243.07
2018-07-27T17:30:46.982Z,100245.58
2018-07-27T17:33:17.088Z,100247.43
2018-07-27T17:35:47.256Z,100243.33
2018-07-27T17:38:17.427Z,100239.92
2018-07-27T17:40:47.605Z,100232.44
2018-07-27T17:43:17.750Z,100235.12
2018-07-27T17:45:47.911Z,100233.64
2018-07-27T17:48:18.163Z,100234.00
2018-07-27T17:50:48.460Z,100231.30
2018-07-27T17:53:18.685Z,100232.55
2018-07-27T17:55:48.952Z,100237.23
2018-07-27T17:58:19.078Z,100234.75
2018-07-27T18:00:49.303Z,100230.80
2018-07-27T18:03:19.565Z,100229.91
2018-07-27T18:05:49.883Z,100220.46
2018-07-27T18:08:20.032Z,100219.95
2018-07-27T18:10:50.241Z,100210.78
2018-07-27T18:13:20.369Z,100219.75
2018-07-27T18:15:50.582Z,100220.17
2018-07-27T18:18:20.757Z,100219.27
2018-07-27T18:20:50.985Z,100219.42
2018-07-27T18:23:21.098Z,100216.20
2018-07-27T18:25:51.450Z,100218.87
2018-07-27T18:28:21.612Z,100219.84
2018-07-27T18:30:51.738Z,100220.16
2018-07-27T18:33:21.905Z,100223.66
2018-07-27T18:35:52.089Z,100226.02
2018-07-27T18:38:22.342Z,100221.53
2018-07-27T18:40:52.569Z,100224.91
2018-07-27T18:43:22.769Z,100219.73
2018-07-27T18:45:52.924Z,100215.02
2018-07-27T18:48:23.040Z,100218.97
2018-07-27T18:50:53.280Z,100210.61
2018-07-27T18:53:23.530Z,100219.84
2018-07-27T18:55:53.710Z,100214.08
2018-07-27T18:58:24.290Z,100221.20
2018-07-27T19:00:54.447Z,100219.05
2018-07-27T19:03:24.729Z,100219.72
2018-07-27T19:05:55.043Z,100221.43
2018-07-27T19:08:25.342Z,100215.77
2018-07-27T19:10:56.083Z,100217.14
2018-07-27T19:13:26.376Z,100210.69
2018-07-27T19:15:56.788Z,100217.38
2018-07-27T19:18:26.900Z,100219.07
2018-07-27T19:20:57.221Z,100209.67
2018-07-27T19:23:28.186Z,100201.29
2018-07-27T19:26:01.702Z,100207.64
2018-07-27T19:28:31.875Z,100208.33
2018-07-27T19:31:02.361Z,100213.48
2018-07-27T19:33:32.729Z,100217.20
2018-07-27T19:36:02.943Z,100213.95
2018-07-27T19:38:33.113Z,100211.60
2018-07-27T19:41:03.903Z,100216.00
2018-07-27T19:43:34.136Z,100208.05
2018-07-27T19:46:04.430Z,100204.84
2018-07-27T19:48:34.898Z,100202.30
2018-07-27T19:51:05.114Z,100199.50
2018-07-27T19:53:35.246Z,100204.05
2018-07-27T19:56:06.619Z,100201.55
2018-07-27T19:58:36.763Z,100197.82
2018-07-27T20:01:07.012Z,100199.38
2018-07-27T20:03:37.045Z,100202.11
2018-07-27T20:06:07.509Z,100205.80
2018-07-27T20:08:37.681Z,100208.29
2018-07-27T20:11:08.035Z,100208.39
2018-07-27T20:13:38.166Z,100213.00
2018-07-27T20:16:07.924Z,100207.46
2018-07-27T20:18:38.022Z,100204.64
2018-07-27T20:21:08.260Z,100202.25
2018-07-27T20:23:38.377Z,100207.47
2018-07-27T20:26:08.742Z,100207.24
2018-07-27T20:28:39.080Z,100205.38
2018-07-27T20:31:09.205Z,100202.36
2018-07-27T20:33:39.440Z,100208.44
2018-07-27T20:36:09.635Z,100201.62
2018-07-27T20:38:39.888Z,100199.97
2018-07-27T20:41:10.743Z,100213.27
2018-07-27T20:43:40.908Z,100206.36
2018-07-27T20:46:14.226Z,100199.05
2018-07-27T20:48:44.379Z,100200.36
2018-07-27T20:51:14.614Z,100206.13
2018-07-27T20:53:44.847Z,100199.08
2018-07-27T20:56:15.076Z,100202.02
2018-07-27T20:58:45.218Z,100205.13
2018-07-27T21:01:15.384Z,100205.13
2018-07-27T21:03:45.524Z,100204.89
2018-07-27T21:06:15.628Z,100208.23
2018-07-27T21:08:45.786Z,100204.45
2018-07-27T21:11:15.959Z,100207.42
2018-07-27T21:13:46.070Z,100209.16
2018-07-27T21:16:16.247Z,100210.67
2018-07-27T21:18:46.356Z,100205.43
2018-07-27T21:21:16.509Z,100211.88
2018-07-27T21:23:46.650Z,100209.45
2018-07-27T21:26:16.853Z,100208.38
2018-07-27T21:28:47.135Z,100204.49
2018-07-27T21:31:17.345Z,100208.78
2018-07-27T21:33:47.478Z,100208.27
2018-07-27T21:36:17.758Z,100204.97
2018-07-27T21:38:48.035Z,100198.64
2018-07-27T21:41:18.348Z,100209.09
2018-07-27T21:43:48.565Z,100209.62
2018-07-27T21:46:18.732Z,100208.78
2018-07-27T21:48:48.909Z,100206.66
2018-07-27T21:51:19.186Z,100200.42
2018-07-27T21:53:49.666Z,100206.02
2018-07-27T21:56:19.803Z,100198.47
2018-07-27T21:58:49.992Z,100203.77
2018-07-27T22:01:20.386Z,100201.83
2018-07-27T22:03:50.662Z,100201.47
2018-07-27T22:06:20.904Z,100192.80
2018-07-27T22:08:51.071Z,100200.23
2018-07-27T22:11:21.553Z,100192.16
2018-07-27T22:13:51.961Z,100190.09
2018-07-27T22:16:22.151Z,100190.24
2018-07-27T22:18:52.259Z,100179.20
2018-07-27T22:21:23.560Z,100173.72
2018-07-27T22:23:53.760Z,100177.23
2018-07-27T22:26:24.147Z,100179.70
2018-07-27T22:28:54.313Z,100174.52
2018-07-27T22:31:24.464Z,100168.91
2018-07-27T22:33:54.636Z,100170.02
2018-07-27T22:36:24.872Z,100172.09
2018-07-27T22:38:55.335Z,100176.74
2018-07-27T22:41:25.822Z,100171.84
2018-07-27T22:43:55.937Z,100168.36
2018-07-27T22:46:26.428Z,100162.31
2018-07-27T22:48:56.646Z,100161.27
2018-07-27T22:51:27.388Z,100158.77
2018-07-27T22:53:58.503Z,100153.26
2018-07-27T22:56:29.102Z,100151.77
2018-07-27T22:58:59.748Z,100157.97
2018-07-27T23:01:30.487Z,100158.37
2018-07-27T23:04:01.094Z,100158.95
2018-07-27T23:06:31.696Z,100154.26
2018-07-27T23:09:02.395Z,100155.47
2018-07-27T23:11:32.603Z,100155.23
2018-07-27T23:14:02.831Z,100149.89
2018-07-27T23:16:33.026Z,100151.40
2018-07-27T23:19:03.063Z,100152.05
2018-07-27T23:21:33.249Z,100150.17
2018-07-27T23:24:03.421Z,100150.75
2018-07-27T23:26:33.593Z,100143.38
2018-07-27T23:29:03.762Z,100147.58
2018-07-27T23:31:33.904Z,100141.77
2018-07-27T23:34:04.032Z,100138.72
2018-07-27T23:36:34.212Z,100138.20
2018-07-27T23:39:07.231Z,100127.28
2018-07-27T23:41:37.664Z,100124.08
2018-07-27T23:44:08.162Z,100128.37
2018-07-27T23:46:38.915Z,100127.19
2018-07-27T23:49:10.225Z,100126.78
2018-07-27T23:51:40.683Z,100123.30
2018-07-27T23:54:10.934Z,100120.64
2018-07-27T23:56:41.099Z,100120.06
2018-07-27T23:59:10.820Z,100119.59
